createdAt,value
2018-09-20T00:01:28.982Z,24.67
2018-09-20T00:03:57.251Z,24.40
2018-09-20T00:06:25.540Z,25.37
2018-09-20T00:08:53.840Z,25.23
2018-09-20T00:11:22.102Z,23.93
2018-09-20T00:13:50.391Z,22.67
2018-09-20T00:16:18.622Z,24.13
2018-09-20T00:18:46.902Z,23.57
2018-09-20T00:21:15.142Z,23.20
2018-09-20T00:23:43.440Z,21.60
2018-09-20T00:26:11.752Z,27.00
2018-09-20T00:28:40.072Z,26.17
2018-09-20T00:31:08.314Z,26.17
2018-09-20T00:33:36.632Z,27.07
2018-09-20T00:36:04.824Z,26.20
2018-09-20T00:38:33.133Z,25.40
2018-09-20T00:41:01.430Z,25.83
2018-09-20T00:43:29.681Z,23.40
2018-09-20T00:45:57.902Z,22.67
2018-09-20T00:48:26.267Z,20.23
2018-09-20T00:50:54.522Z,24.77
2018-09-20T00:53:22.739Z,24.70
2018-09-20T00:55:50.973Z,24.40
2018-09-20T00:58:19.170Z,26.17
2018-09-20T01:00:47.401Z,23.23
2018-09-20T01:03:15.751Z,22.47
2018-09-20T01:05:44.021Z,21.57
2018-09-20T01:08:12.322Z,20.47
2018-09-20T01:10:40.601Z,21.43
2018-09-20T01:13:08.891Z,21.80
2018-09-20T01:15:37.211Z,20.87
2018-09-20T01:18:05.782Z,22.40
2018-09-20T01:20:34.022Z,21.40
2018-09-20T01:23:02.271Z,21.80
2018-09-20T01:25:30.700Z,22.77
2018-09-20T01:27:58.992Z,25.43
2018-09-20T01:30:27.201Z,22.10
2018-09-20T01:32:55.571Z,22.40
2018-09-20T01:35:24.187Z,22.33
2018-09-20T01:37:52.706Z,20.87
2018-09-20T01:40:21.061Z,19.70
2018-09-20T01:42:49.740Z,20.27
2018-09-20T01:45:18.134Z,22.23
2018-09-20T01:47:46.482Z,24.23
2018-09-20T01:50:15.302Z,23.67
2018-09-20T01:52:43.603Z,20.57
2018-09-20T01:55:11.984Z,21.27
2018-09-20T01:57:40.392Z,19.10
2018-09-20T02:00:08.781Z,20.63
2018-09-20T02:02:37.020Z,19.13
2018-09-20T02:05:06.104Z,18.07
2018-09-20T02:07:34.380Z,21.90
2018-09-20T02:10:02.659Z,20.93
2018-09-20T02:12:30.975Z,21.10
2018-09-20T02:14:59.200Z,22.03
2018-09-20T02:17:27.538Z,21.80
2018-09-20T02:19:55.942Z,20.07
2018-09-20T02:22:24.173Z,19.90
2018-09-20T02:24:52.834Z,21.10
2018-09-20T02:27:21.032Z,22.43
2018-09-20T02:29:49.241Z,22.47
2018-09-20T02:32:17.502Z,21.90
2018-09-20T02:34:45.715Z,20.43
2018-09-20T02:37:13.999Z,23.53
2018-09-20T02:39:42.314Z,24.07
2018-09-20T02:42:10.572Z,22.20
2018-09-20T02:44:38.799Z,23.13
2018-09-20T02:47:07.143Z,21.17
2018-09-20T02:49:35.423Z,20.53
2018-09-20T02:52:03.732Z,21.23
2018-09-20T02:54:32.081Z,22.33
2018-09-20T02:57:00.365Z,21.40
2018-09-20T02:59:28.632Z,23.63
2018-09-20T03:01:57.045Z,23.77
2018-09-20T03:04:25.321Z,20.60
2018-09-20T03:06:53.544Z,23.37
2018-09-20T03:09:21.863Z,23.67
2018-09-20T03:11:50.172Z,22.03
2018-09-20T03:14:18.411Z,21.53
2018-09-20T03:16:46.662Z,22.00
2018-09-20T03:19:14.951Z,23.13
2018-09-20T03:21:43.283Z,19.97
2018-09-20T03:24:11.612Z,21.43
2018-09-20T03:26:39.886Z,22.07
2018-09-20T03:29:08.102Z,20.70
2018-09-20T03:31:36.401Z,21.07
2018-09-20T03:34:04.663Z,22.40
2018-09-20T03:36:33.001Z,23.37
2018-09-20T03:39:01.359Z,20.17
2018-09-20T03:41:29.610Z,20.17
2018-09-20T03:43:57.839Z,20.97
2018-09-20T03:46:26.222Z,20.53
2018-09-20T03:48:54.484Z,20.23
2018-09-20T03:51:22.892Z,19.47
2018-09-20T03:53:51.225Z,19.87
2018-09-20T03:56:19.513Z,19.00
2018-09-20T03:58:47.724Z,20.00
2018-09-20T04:01:16.106Z,19.60
2018-09-20T04:03:44.386Z,19.43
2018-09-20T04:06:12.611Z,19.80
2018-09-20T04:08:40.885Z,22.57
2018-09-20T04:11:09.171Z,23.37
2018-09-20T04:13:37.618Z,23.00
2018-09-20T04:16:06.032Z,23.50
2018-09-20T04:18:34.313Z,20.00
2018-09-20T04:21:02.563Z,23.27
2018-09-20T04:23:31.033Z,23.23
2018-09-20T04:25:59.413Z,22.70
2018-09-20T04:28:27.695Z,23.67
2018-09-20T04:30:56.031Z,23.47
2018-09-20T04:33:24.300Z,24.00
2018-09-20T04:35:52.604Z,25.50
2018-09-20T04:38:23.982Z,25.33
2018-09-20T04:40:52.279Z,44.33
2018-09-20T04:43:20.643Z,55.00
2018-09-20T04:45:49.110Z,62.43
2018-09-20T04:48:17.403Z,58.17
2018-09-20T04:50:45.695Z,55.47
2018-09-20T04:53:14.189Z,58.93
2018-09-20T04:55:42.531Z,50.87
2018-09-20T04:58:10.793Z,43.57
2018-09-20T05:00:39.217Z,42.33
2018-09-20T05:03:07.457Z,34.77
2018-09-20T05:05:35.885Z,33.80
2018-09-20T05:08:04.158Z,35.20
2018-09-20T05:10:32.405Z,37.40
2018-09-20T05:13:00.676Z,47.43
2018-09-20T05:15:29.026Z,49.77
2018-09-20T05:17:57.277Z,47.47
2018-09-20T05:20:25.585Z,66.43
2018-09-20T05:22:53.844Z,116.87
2018-09-20T05:25:22.093Z,105.87
2018-09-20T05:27:51.045Z,84.47
2018-09-20T05:30:19.516Z,55.97
2018-09-20T05:32:47.817Z,41.40
2018-09-20T05:35:16.226Z,33.83
2018-09-20T05:37:44.624Z,33.80
2018-09-20T05:40:13.049Z,47.40
2018-09-20T05:42:41.537Z,34.60
2018-09-20T05:45:10.096Z,33.43
2018-09-20T05:47:38.577Z,35.20
2018-09-20T05:50:06.985Z,37.97
2018-09-20T05:52:35.497Z,31.93
2018-09-20T05:55:04.059Z,28.40
2018-09-20T05:57:32.339Z,29.80
2018-09-20T06:00:00.783Z,24.00
2018-09-20T06:02:29.027Z,29.50
2018-09-20T06:04:57.215Z,28.23
2018-09-20T06:07:25.530Z,24.43
2018-09-20T06:09:54.663Z,23.53
2018-09-20T06:12:22.960Z,22.60
2018-09-20T06:14:51.368Z,23.73
2018-09-20T06:17:22.668Z,38.77
2018-09-20T06:19:51.008Z,35.33
2018-09-20T06:22:19.367Z,38.30
2018-09-20T06:24:47.702Z,47.37
2018-09-20T06:27:26.653Z,123.23
2018-09-20T06:29:59.574Z,89.47
2018-09-20T06:32:28.267Z,90.43
2018-09-20T06:34:56.672Z,74.97
2018-09-20T06:37:25.033Z,104.07
2018-09-20T06:39:53.502Z,66.17
2018-09-20T06:42:21.877Z,40.80
2018-09-20T06:44:50.108Z,58.63
2018-09-20T06:47:18.372Z,94.77
2018-09-20T06:49:46.777Z,69.40
2018-09-20T06:52:15.018Z,39.70
2018-09-20T06:54:43.243Z,28.20
2018-09-20T06:57:11.517Z,29.17
2018-09-20T06:59:39.711Z,29.40
2018-09-20T07:02:07.918Z,30.60
2018-09-20T07:04:36.197Z,32.10
2018-09-20T07:07:04.426Z,22.70
2018-09-20T07:09:32.652Z,23.60
2018-09-20T07:12:00.994Z,21.43
2018-09-20T07:14:29.377Z,21.80
2018-09-20T07:16:57.556Z,25.20
2018-09-20T07:19:25.821Z,23.50
2018-09-20T07:21:53.996Z,25.03
2018-09-20T07:24:22.184Z,25.60
2018-09-20T07:26:50.461Z,18.93
2018-09-20T07:29:18.667Z,21.13
2018-09-20T07:31:46.906Z,23.33
2018-09-20T07:34:15.159Z,20.40
2018-09-20T07:36:43.437Z,19.67
2018-09-20T07:39:11.797Z,22.53
2018-09-20T07:41:40.477Z,17.83
2018-09-20T07:44:09.179Z,18.53
2018-09-20T07:46:37.433Z,18.87
2018-09-20T07:49:05.702Z,16.13
2018-09-20T07:51:33.865Z,19.40
2018-09-20T07:54:02.117Z,18.30
2018-09-20T07:56:30.842Z,16.60
2018-09-20T07:58:59.027Z,20.00
2018-09-20T08:01:27.495Z,19.63
2018-09-20T08:03:55.789Z,18.60
2018-09-20T08:06:24.013Z,17.20
2018-09-20T08:08:52.409Z,19.67
2018-09-20T08:11:20.662Z,18.63
2018-09-20T08:13:48.912Z,17.07
2018-09-20T08:16:17.125Z,18.03
2018-09-20T08:18:45.401Z,14.57
2018-09-20T08:21:13.588Z,16.13
2018-09-20T08:23:41.760Z,17.63
2018-09-20T08:26:10.037Z,15.43
2018-09-20T08:28:38.288Z,15.60
2018-09-20T08:31:08.481Z,17.60
2018-09-20T08:33:36.827Z,16.60
2018-09-20T08:36:05.078Z,16.33
2018-09-20T08:38:33.385Z,14.43
2018-09-20T08:41:01.657Z,12.77
2018-09-20T08:43:29.888Z,14.80
2018-09-20T08:45:58.145Z,14.07
2018-09-20T08:48:26.498Z,13.87
2018-09-20T08:50:54.765Z,14.73
2018-09-20T08:53:23.033Z,14.03
2018-09-20T08:55:51.353Z,14.40
2018-09-20T08:58:19.546Z,12.43
2018-09-20T09:00:47.759Z,12.50
2018-09-20T09:03:19.627Z,12.87
2018-09-20T09:05:47.808Z,12.60
2018-09-20T09:08:16.065Z,12.07
2018-09-20T09:10:44.279Z,10.90
2018-09-20T09:13:12.585Z,11.83
2018-09-20T09:15:40.936Z,11.43
2018-09-20T09:18:09.137Z,11.73
2018-09-20T09:20:37.313Z,12.13
2018-09-20T09:23:05.627Z,22.23
2018-09-20T09:25:33.877Z,12.70
2018-09-20T09:28:02.160Z,11.50
2018-09-20T09:30:30.481Z,15.00
2018-09-20T09:32:58.672Z,12.47
2018-09-20T09:35:26.944Z,10.20
2018-09-20T09:37:55.284Z,8.63
2018-09-20T09:40:23.467Z,9.50
2018-09-20T09:42:54.749Z,8.87
2018-09-20T09:45:23.155Z,9.10
2018-09-20T09:47:51.437Z,8.93
2018-09-20T09:50:19.773Z,8.50
2018-09-20T09:52:47.952Z,9.10
2018-09-20T09:55:16.188Z,7.50
2018-09-20T09:57:48.389Z,8.23
2018-09-20T10:00:16.640Z,9.23
2018-09-20T10:02:44.984Z,9.13
2018-09-20T10:05:13.268Z,6.50
2018-09-20T10:07:45.746Z,6.83
2018-09-20T10:10:14.033Z,7.13
2018-09-20T10:12:42.273Z,7.67
2018-09-20T10:15:10.579Z,7.03
2018-09-20T10:17:38.805Z,6.77
2018-09-20T10:20:07.200Z,7.73
2018-09-20T10:22:35.338Z,9.20
2018-09-20T10:25:03.817Z,7.77
2018-09-20T10:27:32.046Z,7.83
2018-09-20T10:30:00.335Z,7.83
2018-09-20T10:32:28.545Z,8.20
2018-09-20T10:34:57.313Z,7.20
2018-09-20T10:37:25.443Z,8.00
2018-09-20T10:39:53.722Z,8.13
2018-09-20T10:42:21.883Z,8.63
2018-09-20T10:44:50.093Z,7.47
2018-09-20T10:47:18.627Z,7.97
2018-09-20T10:49:46.726Z,7.20
2018-09-20T10:52:14.923Z,6.57
2018-09-20T10:54:43.201Z,7.13
2018-09-20T10:57:11.445Z,7.53
2018-09-20T10:59:39.859Z,7.00
2018-09-20T11:02:08.117Z,7.17
2018-09-20T11:04:36.317Z,7.47
2018-09-20T11:07:04.527Z,6.97
2018-09-20T11:09:32.878Z,7.47
2018-09-20T11:12:01.089Z,7.33
2018-09-20T11:14:29.352Z,7.63
2018-09-20T11:16:57.589Z,7.17
2018-09-20T11:19:25.817Z,7.13
2018-09-20T11:21:54.099Z,7.33
2018-09-20T11:24:22.373Z,7.60
2018-09-20T11:26:50.694Z,6.50
2018-09-20T11:29:18.897Z,7.90
2018-09-20T11:31:51.378Z,7.23
2018-09-20T11:34:19.677Z,7.80
2018-09-20T11:36:48.014Z,7.73
2018-09-20T11:39:16.341Z,7.40
2018-09-20T11:41:44.720Z,7.40
2018-09-20T11:44:13.171Z,7.07
2018-09-20T11:46:45.089Z,6.53
2018-09-20T11:49:13.288Z,6.63
2018-09-20T11:51:41.579Z,6.63
2018-09-20T11:54:10.400Z,5.93
2018-09-20T11:56:38.761Z,6.73
2018-09-20T11:59:07.442Z,6.33
2018-09-20T12:01:35.709Z,6.40
2018-09-20T12:04:04.000Z,7.03
2018-09-20T12:06:32.287Z,6.93
2018-09-20T12:09:00.604Z,6.87
2018-09-20T12:11:29.021Z,6.60
2018-09-20T12:13:57.772Z,6.63
2018-09-20T12:16:26.381Z,6.17
2018-09-20T12:21:59.862Z,5.93
2018-09-20T12:24:28.232Z,6.50
2018-09-20T12:26:56.917Z,5.03
2018-09-20T12:32:01.631Z,6.07
2018-09-20T12:34:30.272Z,5.03
2018-09-20T12:36:58.629Z,4.80
2018-09-20T12:39:27.237Z,5.77
2018-09-20T12:41:55.938Z,4.73
2018-09-20T12:44:24.439Z,5.37
2018-09-20T12:46:52.878Z,5.03
2018-09-20T12:49:21.351Z,5.27
2018-09-20T12:51:49.949Z,5.20
2018-09-20T12:54:24.977Z,4.67
2018-09-20T12:56:53.279Z,4.87
2018-09-20T12:59:21.789Z,5.20
2018-09-20T13:01:50.310Z,5.83
2018-09-20T13:04:19.112Z,4.87
2018-09-20T13:06:58.646Z,5.23
2018-09-20T13:09:28.557Z,5.20
2018-09-20T13:12:02.733Z,5.47
2018-09-20T13:14:31.277Z,5.30
2018-09-20T13:17:00.474Z,5.43
2018-09-20T13:19:29.309Z,5.27
2018-09-20T13:21:57.986Z,5.20
2018-09-20T13:24:26.317Z,4.10
2018-09-20T13:26:55.357Z,5.23
2018-09-20T13:29:23.869Z,5.93
2018-09-20T13:31:52.295Z,4.67
2018-09-20T13:34:20.797Z,5.20
2018-09-20T13:36:49.117Z,4.80
2018-09-20T13:39:17.518Z,4.87
2018-09-20T13:41:46.077Z,5.17
2018-09-20T13:44:14.589Z,5.33
2018-09-20T13:46:43.097Z,5.63
2018-09-20T13:49:11.709Z,4.83
2018-09-20T13:51:40.469Z,4.97
2018-09-20T13:54:09.476Z,5.60
2018-09-20T13:56:37.938Z,5.70
2018-09-20T13:59:06.348Z,5.60
2018-09-20T14:01:34.956Z,5.17
2018-09-20T14:04:03.581Z,5.77
2018-09-20T14:06:32.182Z,5.50
2018-09-20T14:09:00.599Z,5.13
2018-09-20T14:11:28.988Z,5.70
2018-09-20T14:13:57.428Z,5.70
2018-09-20T14:16:25.910Z,4.63
2018-09-20T14:18:54.404Z,5.60
2018-09-20T14:21:22.790Z,4.97
2018-09-20T14:23:51.219Z,5.23
2018-09-20T14:26:20.837Z,5.00
2018-09-20T14:28:50.253Z,4.97
2018-09-20T14:31:19.620Z,5.07
2018-09-20T14:33:49.366Z,4.80
2018-09-20T14:36:18.898Z,4.70
2018-09-20T14:38:48.122Z,5.07
2018-09-20T14:41:16.788Z,4.57
2018-09-20T14:43:45.196Z,4.73
2018-09-20T14:46:13.756Z,5.17
2018-09-20T14:48:42.188Z,4.20
2018-09-20T14:51:11.396Z,5.00
2018-09-20T14:53:39.840Z,4.20
2018-09-20T14:56:08.348Z,4.10
2018-09-20T14:58:36.997Z,4.23
2018-09-20T15:01:06.788Z,4.50
2018-09-20T15:03:35.637Z,4.50
2018-09-20T15:06:04.156Z,4.93
2018-09-20T15:08:33.029Z,4.53
2018-09-20T15:11:01.592Z,4.60
2018-09-20T15:13:29.997Z,4.80
2018-09-20T15:15:58.356Z,4.60
2018-09-20T15:18:26.917Z,4.87
2018-09-20T15:20:55.356Z,4.53
2018-09-20T15:23:24.079Z,5.17
2018-09-20T15:25:55.637Z,5.07
2018-09-20T15:28:35.869Z,5.63
2018-09-20T15:31:08.377Z,4.83
2018-09-20T15:33:36.861Z,4.83
2018-09-20T15:36:05.281Z,4.67
2018-09-20T15:38:33.710Z,4.43
2018-09-20T15:41:02.917Z,4.90
2018-09-20T15:43:31.438Z,4.27
2018-09-20T15:45:59.977Z,5.20
2018-09-20T15:48:28.422Z,4.97
2018-09-20T15:50:56.846Z,5.07
2018-09-20T15:53:25.517Z,4.70
2018-09-20T15:55:53.909Z,4.80
2018-09-20T15:58:22.926Z,5.23
2018-09-20T16:01:02.974Z,5.40
2018-09-20T16:03:38.558Z,5.23
2018-09-20T16:06:07.323Z,7.40
2018-09-20T16:08:36.830Z,7.50
2018-09-20T16:11:05.353Z,8.13
2018-09-20T16:13:33.749Z,7.50
2018-09-20T16:16:02.200Z,7.73
2018-09-20T16:18:30.677Z,6.87
2018-09-20T16:20:59.029Z,6.90
2018-09-20T16:23:27.630Z,6.33
2018-09-20T16:25:56.103Z,6.60
2018-09-20T16:28:28.149Z,6.30
2018-09-20T16:31:01.002Z,5.67
2018-09-20T16:33:33.798Z,6.47
2018-09-20T16:36:07.072Z,5.27
2018-09-20T16:38:38.779Z,6.27
2018-09-20T16:41:08.885Z,8.57
2018-09-20T16:43:37.392Z,9.97
2018-09-20T16:46:05.789Z,9.60
2018-09-20T16:48:35.470Z,10.00
2018-09-20T16:51:45.845Z,12.90
2018-09-20T16:54:14.470Z,16.23
2018-09-20T16:56:42.949Z,16.67
2018-09-20T16:59:11.357Z,43.03
2018-09-20T17:01:39.936Z,107.47
2018-09-20T17:04:08.440Z,113.47
2018-09-20T17:06:37.059Z,111.40
2018-09-20T17:09:07.109Z,135.37
2018-09-20T17:11:35.939Z,102.10
2018-09-20T17:14:04.669Z,76.13
2018-09-20T17:16:33.228Z,76.83
2018-09-20T17:19:01.670Z,76.17
2018-09-20T17:21:30.118Z,74.60
2018-09-20T17:23:58.509Z,71.47
2018-09-20T17:26:27.198Z,72.80
2018-09-20T17:28:55.829Z,72.63
2018-09-20T17:31:24.877Z,133.37
2018-09-20T17:33:53.739Z,206.67
2018-09-20T17:36:22.310Z,186.33
2018-09-20T17:38:51.097Z,113.77
2018-09-20T17:41:33.438Z,56.17
2018-09-20T17:44:06.839Z,41.93
2018-09-20T17:46:36.160Z,39.93
2018-09-20T17:49:11.677Z,35.43
2018-09-20T17:51:40.438Z,32.10
2018-09-20T17:54:08.965Z,29.93
2018-09-20T17:56:37.509Z,20.60
2018-09-20T17:59:06.230Z,20.90
2018-09-20T18:01:34.869Z,20.93
2018-09-20T18:04:03.398Z,20.17
2018-09-20T18:06:32.126Z,17.50
2018-09-20T18:09:00.877Z,15.80
2018-09-20T18:11:29.381Z,13.57
2018-09-20T18:13:59.119Z,12.63
2018-09-20T18:16:27.869Z,11.53
2018-09-20T18:18:57.229Z,10.90
2018-09-20T18:21:27.965Z,11.03
2018-09-20T18:23:57.350Z,10.10
2018-09-20T18:26:26.077Z,10.10
2018-09-20T18:28:54.617Z,10.50
2018-09-20T18:31:23.261Z,9.80
2018-09-20T18:33:51.717Z,10.13
2018-09-20T18:36:20.117Z,10.37
2018-09-20T18:38:49.429Z,10.13
2018-09-20T18:41:17.858Z,10.70
2018-09-20T18:43:46.457Z,9.40
2018-09-20T18:46:17.229Z,10.03
2018-09-20T18:48:47.518Z,9.80
2018-09-20T18:51:19.810Z,9.10
2018-09-20T18:53:48.577Z,8.60
2018-09-20T18:56:17.029Z,8.97
2018-09-20T18:58:45.526Z,9.43
2018-09-20T19:01:14.826Z,9.37
2018-09-20T19:03:43.229Z,9.13
2018-09-20T19:06:12.978Z,10.47
2018-09-20T19:08:41.734Z,9.33
2018-09-20T19:11:10.597Z,9.47
2018-09-20T19:13:40.294Z,9.53
2018-09-20T19:16:09.029Z,9.80
2018-09-20T19:18:37.989Z,9.57
2018-09-20T19:21:06.562Z,9.33
2018-09-20T19:23:35.422Z,8.60
2018-09-20T19:26:03.933Z,8.47
2018-09-20T19:28:32.949Z,8.30
2018-09-20T19:31:01.597Z,10.07
2018-09-20T19:33:30.589Z,9.67
2018-09-20T19:35:59.909Z,9.03
2018-09-20T19:38:28.549Z,9.17
2018-09-20T19:40:57.169Z,9.13
2018-09-20T19:43:29.749Z,9.37
2018-09-20T19:45:58.821Z,9.03
2018-09-20T19:48:28.238Z,9.40
2018-09-20T19:50:59.716Z,8.63
2018-09-20T19:53:36.791Z,8.57
2018-09-20T19:56:07.630Z,9.53
2018-09-20T19:58:37.245Z,8.60
2018-09-20T20:01:08.477Z,8.77
2018-09-20T20:03:37.679Z,8.43
2018-09-20T20:06:10.185Z,8.73
2018-09-20T20:08:44.149Z,8.30
2018-09-20T20:11:14.480Z,9.00
2018-09-20T20:13:48.418Z,9.17
2018-09-20T20:16:17.840Z,8.97
2018-09-20T20:18:47.688Z,9.10
2018-09-20T20:21:16.317Z,9.63
2018-09-20T20:23:46.905Z,9.07
2018-09-20T20:26:18.704Z,9.37
2018-09-20T20:28:47.291Z,9.23
2018-09-20T20:31:16.156Z,9.23
2018-09-20T20:33:47.288Z,9.33
2018-09-20T20:36:24.455Z,9.33
2018-09-20T20:38:53.840Z,8.93
2018-09-20T20:41:26.559Z,9.00
2018-09-20T20:43:56.296Z,9.07
2018-09-20T20:46:25.592Z,9.40
2018-09-20T20:48:54.136Z,8.70
2018-09-20T20:51:22.607Z,9.80
2018-09-20T20:53:55.007Z,9.40
2018-09-20T20:56:32.459Z,9.77
2018-09-20T20:59:16.477Z,9.57
2018-09-20T21:02:06.551Z,10.23
2018-09-20T21:04:43.960Z,9.00
2018-09-20T21:07:16.037Z,9.27
2018-09-20T21:09:45.761Z,9.53
2018-09-20T21:12:14.965Z,8.90
2018-09-20T21:14:43.530Z,9.87
2018-09-20T21:17:12.408Z,9.57
2018-09-20T21:19:41.237Z,9.37
2018-09-20T21:22:10.128Z,9.70
2018-09-20T21:24:38.457Z,9.37
2018-09-20T21:27:06.881Z,10.37
2018-09-20T21:29:35.169Z,9.60
2018-09-20T21:32:06.536Z,7.73
2018-09-20T21:34:34.821Z,9.10
2018-09-20T21:37:03.080Z,8.90
2018-09-20T21:39:34.390Z,8.87
2018-09-20T21:42:02.660Z,9.30
2018-09-20T21:44:30.997Z,9.60
2018-09-20T21:46:59.319Z,9.67
2018-09-20T21:49:27.709Z,10.10
2018-09-20T21:51:56.001Z,10.00
2018-09-20T21:54:24.309Z,10.63
2018-09-20T21:56:55.628Z,9.63
2018-09-20T21:59:23.797Z,9.77
2018-09-20T22:01:56.369Z,11.27
2018-09-20T22:04:24.648Z,10.47
2018-09-20T22:06:52.910Z,11.33
2018-09-20T22:09:21.200Z,10.40
2018-09-20T22:11:49.517Z,10.43
2018-09-20T22:14:17.800Z,10.67
2018-09-20T22:16:46.152Z,9.97
2018-09-20T22:19:14.404Z,10.47
2018-09-20T22:21:42.701Z,11.47
2018-09-20T22:24:11.108Z,10.00
2018-09-20T22:26:39.397Z,11.00
2018-09-20T22:29:07.683Z,11.77
2018-09-20T22:31:35.989Z,11.40
2018-09-20T22:34:04.240Z,12.03
2018-09-20T22:36:32.688Z,12.00
2018-09-20T22:39:00.970Z,11.67
2018-09-20T22:41:29.371Z,10.63
2018-09-20T22:43:57.644Z,12.20
2018-09-20T22:46:25.941Z,11.50
2018-09-20T22:48:54.248Z,12.10
2018-09-20T22:51:22.489Z,11.00
2018-09-20T22:53:50.782Z,12.53
2018-09-20T22:56:19.145Z,11.47
2018-09-20T22:58:47.411Z,12.53
2018-09-20T23:01:15.818Z,12.97
2018-09-20T23:03:44.738Z,12.20
2018-09-20T23:06:13.064Z,11.67
2018-09-20T23:08:41.380Z,11.83
2018-09-20T23:11:09.678Z,12.17
2018-09-20T23:13:37.996Z,13.43
2018-09-20T23:16:06.320Z,13.37
2018-09-20T23:18:37.559Z,14.23
2018-09-20T23:21:08.889Z,14.33
2018-09-20T23:23:37.200Z,13.07
2018-09-20T23:26:05.419Z,13.67
2018-09-20T23:28:33.689Z,12.83
2018-09-20T23:31:01.967Z,12.77
2018-09-20T23:33:30.267Z,13.63
2018-09-20T23:35:58.599Z,13.57
2018-09-20T23:38:26.829Z,12.10
2018-09-20T23:40:55.049Z,15.13
2018-09-20T23:43:23.358Z,14.43
2018-09-20T23:45:51.570Z,13.37
2018-09-20T23:48:19.829Z,14.63
2018-09-20T23:50:48.101Z,14.73
2018-09-20T23:53:16.509Z,13.87
2018-09-20T23:55:44.739Z,15.40
2018-09-20T23:58:12.968Z,13.23
